Fellsburg, Kansas
Current Conditions -  °F | °C
As of 6:15 PM on Friday 21 Nov 2014 (Local Time) from KPTT Reporting Station
Haze Haze  
Wind Chill: 36°   Ceiling: 600
Heat Index: 39°   Visibility: 5mi
Dew Point: 37°   Wind: 5mph
Humidity: 93%   Direction: 180°S
Pressure: 30.02"   Gusts: NA
Location:  37.8615°N, 99.2293°W
Report Text: KPTT 220015Z AUTO 18004KT 5SM BR OVC006 04/03 A3002 RMK AO2
Loading
Personal Weather Stations






























Interactive Weather Map New forecast layout! Learn more

10-Day Weather Forecast

Advertisements
Track Severe Weather on mobile